• Join FlightAware (Why Join?)
  • Login
  • US Flag 
09:22AM EDT


 

Airport Tracker/Info


-or-


 

Live Flight TrackerFlight Track Log ✈ AAR571 ✈ 26-Jun-2013 ✈ UHHH / KHV - RKSI / ICN

Flight Track Log - Related Links

Times and Time Zones

All times are in EDT time to prevent confusion due to time zone crossing. See the AAR571 flight status page for this flight to view local times or setup timezone preferences in your user account.

Time Position Orientation Groundspeed Altitude Reporting Facility
EDT Latitude Longitude Course Direction KTS MPH feet Rate Location/Type
03:08AM 43.3224 130.6135 213° Southwest  Level Estimated
03:09AM 43.2537 130.5595 210° Southwest  Level Estimated
03:10AM 43.1849 130.5055 210° Southwest  Level Estimated
03:11AM 43.1161 130.4517 210° Southwest  Level Estimated
03:12AM 43.0473 130.3980 210° Southwest  Level Estimated
03:13AM 42.9785 130.3444 210° Southwest  Level Estimated
03:14AM 42.9096 130.2910 210° Southwest  Level Estimated
03:15AM 42.8408 130.2376 210° Southwest  Level Estimated
03:16AM 42.7719 130.1844 210° Southwest  Level Estimated
03:17AM 42.7029 130.1313 210° Southwest  Level Estimated
03:18AM 42.6340 130.0783 209° Southwest  Level Estimated
03:19AM 42.5650 130.0254 209° Southwest  Level Estimated
03:20AM 42.4960 129.9727 209° Southwest  Level Estimated
03:21AM 42.4269 129.9200 209° Southwest  Level Estimated
03:22AM 42.3579 129.8675 209° Southwest  Level Estimated
03:23AM 42.2888 129.8151 209° Southwest  Level Estimated
03:24AM 42.2197 129.7628 209° Southwest  Level Estimated
03:25AM 42.1506 129.7106 209° Southwest  Level Estimated
03:26AM 42.0814 129.6586 209° Southwest  Level Estimated
03:27AM 42.0123 129.6066 209° Southwest  Level Estimated
03:28AM 41.9431 129.5548 209° Southwest  Level Estimated
03:29AM 41.8739 129.5030 209° Southwest  Level Estimated
03:30AM 41.8046 129.4514 209° Southwest  Level Estimated
03:31AM 41.7354 129.3999 209° Southwest  Level Estimated
03:32AM 41.6661 129.3485 209° Southwest  Level Estimated
03:33AM 41.5967 129.2973 209° Southwest  Level Estimated
03:34AM 41.5274 129.2461 209° Southwest  Level Estimated
03:35AM 41.4581 129.1950 209° Southwest  Level Estimated
03:36AM 41.3887 129.1441 209° Southwest  Level Estimated
03:37AM 41.3193 129.0932 209° Southwest  Level Estimated
03:38AM 41.2499 129.0425 209° Southwest  Level Estimated
03:39AM 41.1804 128.9919 209° Southwest  Level Estimated
03:40AM 41.1109 128.9413 209° Southwest  Level Estimated
03:41AM 41.0415 128.8909 209° Southwest  Level Estimated
03:42AM 40.9719 128.8406 209° Southwest  Level Estimated
03:43AM 40.9024 128.7904 209° Southwest  Level Estimated
03:44AM 40.8329 128.7403 209° Southwest  Level Estimated
03:45AM 40.7633 128.6903 209° Southwest  Level Estimated
03:46AM 40.6937 128.6404 209° Southwest  Level Estimated
03:47AM 40.6241 128.5907 208° Southwest  Level Estimated
03:48AM 40.5544 128.5410 208° Southwest  Level Estimated
03:49AM 40.4847 128.4914 208° Southwest  Level Estimated
03:50AM 40.4151 128.4419 208° Southwest  Level Estimated
03:51AM 40.3454 128.3926 208° Southwest  Level Estimated
03:52AM 40.2756 128.3433 208° Southwest  Level Estimated
03:53AM 40.2059 128.2941 208° Southwest  Level Estimated
03:54AM 40.1361 128.2451 208° Southwest  Level Estimated
03:55AM 40.0663 128.1961 208° Southwest  Level Estimated
03:56AM 39.9965 128.1472 208° Southwest  Level Estimated
03:57AM 39.9267 128.0985 208° Southwest  Level Estimated
03:58AM 39.8568 128.0498 208° Southwest  Level Estimated
03:59AM 39.7870 128.0012 208° Southwest  Level Estimated
04:00AM 39.7171 127.9528 208° Southwest  Level Estimated
04:01AM 39.6472 127.9044 208° Southwest  Level Estimated
04:02AM 39.5772 127.8561 208° Southwest  Level Estimated
04:03AM 39.5073 127.8079 208° Southwest  Level Estimated
04:04AM 39.4373 127.7599 208° Southwest  Level Estimated
04:05AM 39.3673 127.7119 208° Southwest  Level Estimated
04:06AM 39.2973 127.6640 208° Southwest  Level Estimated
04:07AM 39.2273 127.6162 208° Southwest  Level Estimated
04:08AM 39.1572 127.5685 208° Southwest  Level Estimated
04:09AM 39.0872 127.5209 208° Southwest  Level Estimated
04:10AM 39.0171 127.4734 208° Southwest  Level Estimated
04:11AM 38.9470 127.4260 208° Southwest  Level Estimated
04:12AM 38.8768 127.3787 208° Southwest  Level Estimated
04:13AM 38.8067 127.3315 208° Southwest  Level Estimated
04:14AM 38.7365 127.2843 208° Southwest  Level Estimated
04:15AM 38.6664 127.2373 208° Southwest  Level Estimated
04:16AM 38.5962 127.1903 208° Southwest  Level Estimated
04:17AM 38.5259 127.1435 208° Southwest  Level Estimated
04:18AM 38.4557 127.0967 208° Southwest  Level Estimated
04:19AM 38.3854 127.0500 208° Southwest  Level Estimated
04:20AM 38.3152 127.0035 207° Southwest  Level Estimated
04:21AM 38.2449 126.9570 207° Southwest  Level Estimated
04:22AM 38.1746 126.9106 207° Southwest  Level Estimated
04:23AM 38.1042 126.8643 207° Southwest  Level Estimated
04:24AM 38.0339 126.8180 207° Southwest  Level Estimated
04:25AM 37.9635 126.7719 207° Southwest  Level Estimated
04:26AM 37.8931 126.7259 207° Southwest  Level Estimated
04:27AM 37.8227 126.6799 207° Southwest  Level Estimated
04:28AM 37.7523 126.6340 207° Southwest  Level Estimated
04:29AM 37.6819 126.5882 207° Southwest  Level Estimated
04:30AM 37.6114 126.5425 207° Southwest  Level Estimated
04:31AM 37.5410 126.4969 207° Southwest  Level Estimated
04:32AM 37.4705 126.4514 207° Southwest  Level Estimated
04:33AM 37.4691 126.4505 207° Southwest  Level Estimated
04:34AM 37.4691 126.4505 335° Northwest  Level Estimated
04:35AM 37.4691 126.4505 335° Northwest  Level Estimated
04:36AM 37.4691 126.4505 335° Northwest  Level Estimated
04:37AM 37.4691 126.4505 335° Northwest  Level Estimated
04:38AM 37.4691 126.4505 335° Northwest  Level Estimated
04:39AM 37.4691 126.4505 335° Northwest  Level Estimated
04:40AM 37.4691 126.4505 335° Northwest  Level Estimated
04:41AM 37.4691 126.4505 335° Northwest  Level Estimated
04:42AM 37.4691 126.4505 335° Northwest  Level Estimated
04:43AM 37.4691 126.4505 335° Northwest  Level Estimated
04:44AM 37.4691 126.4505 335° Northwest  Level Estimated
04:45AM 37.4691 126.4505 335° Northwest  Level Estimated
04:46AM 37.4691 126.4505 335° Northwest  Level Estimated